sensor_id;sensor_type;location;lat;lon;timestamp;P1;durP1;ratioP1;P2;durP2;ratioP2
68076;SDS011;54866;53.458;14.540;2023-07-20T00:00:19;3.00;;;1.50;;
68076;SDS011;54866;53.458;14.540;2023-07-20T00:02:49;2.00;;;1.10;;
68076;SDS011;54866;53.458;14.540;2023-07-20T00:05:19;3.50;;;1.20;;
68076;SDS011;54866;53.458;14.540;2023-07-20T00:07:51;1.70;;;1.10;;
68076;SDS011;54866;53.458;14.540;2023-07-20T00:10:20;2.60;;;1.50;;
68076;SDS011;54866;53.458;14.540;2023-07-20T00:12:49;2.10;;;1.10;;
68076;SDS011;54866;53.458;14.540;2023-07-20T00:15:19;2.20;;;1.20;;
68076;SDS011;54866;53.458;14.540;2023-07-20T00:17:48;2.20;;;1.40;;
68076;SDS011;54866;53.458;14.540;2023-07-20T00:20:18;2.60;;;1.70;;
68076;SDS011;54866;53.458;14.540;2023-07-20T00:22:47;3.00;;;1.40;;
68076;SDS011;54866;53.458;14.540;2023-07-20T00:25:17;3.60;;;1.70;;
68076;SDS011;54866;53.458;14.540;2023-07-20T00:27:47;3.00;;;1.50;;
68076;SDS011;54866;53.458;14.540;2023-07-20T00:30:16;3.20;;;1.50;;
68076;SDS011;54866;53.458;14.540;2023-07-20T00:32:46;2.20;;;1.30;;
68076;SDS011;54866;53.458;14.540;2023-07-20T00:35:15;2.10;;;1.50;;
68076;SDS011;54866;53.458;14.540;2023-07-20T00:37:44;3.30;;;1.70;;
68076;SDS011;54866;53.458;14.540;2023-07-20T00:40:14;3.50;;;1.70;;
68076;SDS011;54866;53.458;14.540;2023-07-20T00:42:44;2.90;;;1.60;;
68076;SDS011;54866;53.458;14.540;2023-07-20T00:45:13;2.60;;;1.50;;
68076;SDS011;54866;53.458;14.540;2023-07-20T00:47:43;2.90;;;1.40;;
68076;SDS011;54866;53.458;14.540;2023-07-20T00:50:12;2.60;;;1.40;;
68076;SDS011;54866;53.458;14.540;2023-07-20T00:52:42;2.40;;;1.40;;
68076;SDS011;54866;53.458;14.540;2023-07-20T00:55:11;3.30;;;1.70;;
68076;SDS011;54866;53.458;14.540;2023-07-20T00:57:41;2.70;;;1.70;;
68076;SDS011;54866;53.458;14.540;2023-07-20T01:00:11;2.50;;;1.20;;
68076;SDS011;54866;53.458;14.540;2023-07-20T01:02:41;3.50;;;1.90;;
68076;SDS011;54866;53.458;14.540;2023-07-20T01:05:11;2.60;;;1.50;;
68076;SDS011;54866;53.458;14.540;2023-07-20T01:07:46;2.80;;;1.80;;
68076;SDS011;54866;53.458;14.540;2023-07-20T01:10:22;2.60;;;1.80;;
68076;SDS011;54866;53.458;14.540;2023-07-20T01:12:57;3.20;;;1.80;;
68076;SDS011;54866;53.458;14.540;2023-07-20T01:15:28;4.20;;;1.80;;
68076;SDS011;54866;53.458;14.540;2023-07-20T01:17:57;3.00;;;2.10;;
68076;SDS011;54866;53.458;14.540;2023-07-20T01:20:27;3.20;;;1.60;;
68076;SDS011;54866;53.458;14.540;2023-07-20T01:26:10;3.60;;;1.60;;
68076;SDS011;54866;53.458;14.540;2023-07-20T01:31:56;3.40;;;2.00;;
68076;SDS011;54866;53.458;14.540;2023-07-20T01:34:29;4.50;;;1.60;;
68076;SDS011;54866;53.458;14.540;2023-07-20T01:36:59;3.10;;;1.50;;
68076;SDS011;54866;53.458;14.540;2023-07-20T01:39:30;2.70;;;1.60;;
68076;SDS011;54866;53.458;14.540;2023-07-20T01:42:00;3.60;;;2.00;;
68076;SDS011;54866;53.458;14.540;2023-07-20T01:44:30;2.40;;;1.70;;
68076;SDS011;54866;53.458;14.540;2023-07-20T01:46:59;3.00;;;1.70;;
68076;SDS011;54866;53.458;14.540;2023-07-20T01:49:29;2.70;;;1.90;;
68076;SDS011;54866;53.458;14.540;2023-07-20T01:51:59;3.20;;;1.90;;
68076;SDS011;54866;53.458;14.540;2023-07-20T01:54:28;3.80;;;1.70;;
68076;SDS011;54866;53.458;14.540;2023-07-20T01:56:57;3.70;;;2.00;;
68076;SDS011;54866;53.458;14.540;2023-07-20T01:59:27;3.10;;;1.80;;
68076;SDS011;54866;53.458;14.540;2023-07-20T02:01:56;3.30;;;1.90;;
68076;SDS011;54866;53.458;14.540;2023-07-20T02:04:25;3.10;;;1.50;;
68076;SDS011;54866;53.458;14.540;2023-07-20T02:06:55;2.70;;;1.80;;
68076;SDS011;54866;53.458;14.540;2023-07-20T02:09:24;2.40;;;1.60;;
68076;SDS011;54866;53.458;14.540;2023-07-20T02:11:53;2.70;;;2.30;;
68076;SDS011;54866;53.458;14.540;2023-07-20T02:14:23;3.70;;;2.00;;
68076;SDS011;54866;53.458;14.540;2023-07-20T02:16:52;3.40;;;2.00;;
68076;SDS011;54866;53.458;14.540;2023-07-20T02:19:24;2.70;;;2.20;;
68076;SDS011;54866;53.458;14.540;2023-07-20T02:21:53;3.50;;;2.00;;
68076;SDS011;54866;53.458;14.540;2023-07-20T02:24:23;3.00;;;2.10;;
68076;SDS011;54866;53.458;14.540;2023-07-20T02:26:52;3.30;;;2.10;;
68076;SDS011;54866;53.458;14.540;2023-07-20T02:29:22;4.20;;;2.20;;
68076;SDS011;54866;53.458;14.540;2023-07-20T02:31:51;3.80;;;2.20;;
68076;SDS011;54866;53.458;14.540;2023-07-20T02:34:20;3.20;;;2.20;;
68076;SDS011;54866;53.458;14.540;2023-07-20T02:36:50;3.10;;;2.10;;
68076;SDS011;54866;53.458;14.540;2023-07-20T02:39:19;4.10;;;2.40;;
68076;SDS011;54866;53.458;14.540;2023-07-20T02:41:49;2.70;;;2.10;;
68076;SDS011;54866;53.458;14.540;2023-07-20T02:44:18;3.80;;;2.50;;
68076;SDS011;54866;53.458;14.540;2023-07-20T02:46:47;3.90;;;2.30;;
68076;SDS011;54866;53.458;14.540;2023-07-20T02:49:17;2.80;;;1.90;;
68076;SDS011;54866;53.458;14.540;2023-07-20T02:51:47;4.90;;;2.00;;
68076;SDS011;54866;53.458;14.540;2023-07-20T02:54:16;3.60;;;2.20;;
68076;SDS011;54866;53.458;14.540;2023-07-20T02:56:45;2.30;;;1.80;;
68076;SDS011;54866;53.458;14.540;2023-07-20T02:59:15;3.20;;;2.60;;
68076;SDS011;54866;53.458;14.540;2023-07-20T03:01:45;4.10;;;2.50;;
68076;SDS011;54866;53.458;14.540;2023-07-20T03:04:14;3.40;;;2.20;;
68076;SDS011;54866;53.458;14.540;2023-07-20T03:06:43;5.40;;;2.00;;
68076;SDS011;54866;53.458;14.540;2023-07-20T03:09:13;4.10;;;2.00;;
68076;SDS011;54866;53.458;14.540;2023-07-20T03:11:43;2.70;;;2.20;;
68076;SDS011;54866;53.458;14.540;2023-07-20T03:14:12;4.50;;;2.10;;
68076;SDS011;54866;53.458;14.540;2023-07-20T03:16:41;3.20;;;1.90;;
68076;SDS011;54866;53.458;14.540;2023-07-20T03:19:10;4.00;;;2.10;;
68076;SDS011;54866;53.458;14.540;2023-07-20T03:21:40;3.80;;;2.20;;
68076;SDS011;54866;53.458;14.540;2023-07-20T03:24:09;2.90;;;2.00;;
68076;SDS011;54866;53.458;14.540;2023-07-20T03:26:39;3.10;;;2.00;;
68076;SDS011;54866;53.458;14.540;2023-07-20T03:29:08;3.00;;;2.30;;
68076;SDS011;54866;53.458;14.540;2023-07-20T03:31:37;2.30;;;1.70;;
68076;SDS011;54866;53.458;14.540;2023-07-20T03:34:07;3.10;;;2.10;;
68076;SDS011;54866;53.458;14.540;2023-07-20T03:36:36;2.80;;;1.90;;
68076;SDS011;54866;53.458;14.540;2023-07-20T03:39:05;3.70;;;2.30;;
68076;SDS011;54866;53.458;14.540;2023-07-20T03:41:35;3.20;;;2.00;;
68076;SDS011;54866;53.458;14.540;2023-07-20T03:44:04;4.70;;;2.30;;
68076;SDS011;54866;53.458;14.540;2023-07-20T03:46:34;4.10;;;2.30;;
68076;SDS011;54866;53.458;14.540;2023-07-20T03:49:04;2.50;;;1.80;;
68076;SDS011;54866;53.458;14.540;2023-07-20T03:51:35;3.50;;;1.90;;
68076;SDS011;54866;53.458;14.540;2023-07-20T03:54:04;2.90;;;2.60;;
68076;SDS011;54866;53.458;14.540;2023-07-20T03:56:34;4.10;;;1.90;;
68076;SDS011;54866;53.458;14.540;2023-07-20T03:59:03;3.40;;;2.30;;
68076;SDS011;54866;53.458;14.540;2023-07-20T04:01:33;2.70;;;2.00;;
68076;SDS011;54866;53.458;14.540;2023-07-20T04:13:26;3.90;;;2.40;;
68076;SDS011;54866;53.458;14.540;2023-07-20T04:15:59;3.60;;;2.10;;
68076;SDS011;54866;53.458;14.540;2023-07-20T04:18:29;3.30;;;2.00;;
68076;SDS011;54866;53.458;14.540;2023-07-20T04:20:58;3.30;;;2.00;;
68076;SDS011;54866;53.458;14.540;2023-07-20T04:23:28;3.50;;;2.90;;
68076;SDS011;54866;53.458;14.540;2023-07-20T04:25:57;6.30;;;2.40;;
68076;SDS011;54866;53.458;14.540;2023-07-20T04:28:26;3.80;;;2.20;;
68076;SDS011;54866;53.458;14.540;2023-07-20T04:31:08;3.20;;;2.30;;
68076;SDS011;54866;53.458;14.540;2023-07-20T04:33:38;5.30;;;1.80;;
68076;SDS011;54866;53.458;14.540;2023-07-20T04:36:08;4.10;;;2.20;;
68076;SDS011;54866;53.458;14.540;2023-07-20T04:38:37;3.40;;;2.00;;
68076;SDS011;54866;53.458;14.540;2023-07-20T04:41:07;3.10;;;1.90;;
68076;SDS011;54866;53.458;14.540;2023-07-20T04:43:36;3.40;;;2.20;;
68076;SDS011;54866;53.458;14.540;2023-07-20T04:46:08;3.30;;;2.00;;
68076;SDS011;54866;53.458;14.540;2023-07-20T04:48:37;4.70;;;2.30;;
68076;SDS011;54866;53.458;14.540;2023-07-20T04:51:08;3.30;;;1.80;;
68076;SDS011;54866;53.458;14.540;2023-07-20T04:53:38;3.50;;;2.20;;
68076;SDS011;54866;53.458;14.540;2023-07-20T04:56:07;3.60;;;2.00;;
68076;SDS011;54866;53.458;14.540;2023-07-20T04:58:37;4.30;;;2.40;;
68076;SDS011;54866;53.458;14.540;2023-07-20T05:01:06;2.30;;;1.80;;
68076;SDS011;54866;53.458;14.540;2023-07-20T05:03:36;2.60;;;1.90;;
68076;SDS011;54866;53.458;14.540;2023-07-20T05:06:06;3.00;;;2.10;;
68076;SDS011;54866;53.458;14.540;2023-07-20T05:08:35;3.70;;;2.00;;
68076;SDS011;54866;53.458;14.540;2023-07-20T05:11:05;2.50;;;1.80;;
68076;SDS011;54866;53.458;14.540;2023-07-20T05:13:35;3.10;;;2.30;;
68076;SDS011;54866;53.458;14.540;2023-07-20T05:16:04;3.30;;;2.20;;
68076;SDS011;54866;53.458;14.540;2023-07-20T05:18:34;2.80;;;1.90;;
68076;SDS011;54866;53.458;14.540;2023-07-20T05:21:05;4.20;;;1.90;;
68076;SDS011;54866;53.458;14.540;2023-07-20T05:23:34;3.10;;;1.90;;
68076;SDS011;54866;53.458;14.540;2023-07-20T05:26:04;2.90;;;1.70;;
68076;SDS011;54866;53.458;14.540;2023-07-20T05:28:33;2.80;;;1.50;;
68076;SDS011;54866;53.458;14.540;2023-07-20T05:31:03;3.50;;;1.50;;
68076;SDS011;54866;53.458;14.540;2023-07-20T05:33:33;3.10;;;1.80;;
68076;SDS011;54866;53.458;14.540;2023-07-20T05:36:03;2.30;;;1.60;;
68076;SDS011;54866;53.458;14.540;2023-07-20T05:38:34;1.90;;;1.10;;
68076;SDS011;54866;53.458;14.540;2023-07-20T05:41:04;2.50;;;1.50;;
68076;SDS011;54866;53.458;14.540;2023-07-20T05:43:36;3.00;;;1.20;;
68076;SDS011;54866;53.458;14.540;2023-07-20T05:46:06;2.40;;;1.20;;
68076;SDS011;54866;53.458;14.540;2023-07-20T05:48:36;1.90;;;1.00;;
68076;SDS011;54866;53.458;14.540;2023-07-20T05:51:05;2.20;;;1.20;;
68076;SDS011;54866;53.458;14.540;2023-07-20T05:53:34;1.90;;;1.00;;
68076;SDS011;54866;53.458;14.540;2023-07-20T05:56:04;1.70;;;0.90;;
68076;SDS011;54866;53.458;14.540;2023-07-20T05:58:36;1.40;;;0.80;;
68076;SDS011;54866;53.458;14.540;2023-07-20T06:01:05;2.70;;;1.10;;
68076;SDS011;54866;53.458;14.540;2023-07-20T06:03:35;2.30;;;0.80;;
68076;SDS011;54866;53.458;14.540;2023-07-20T06:06:04;3.70;;;1.00;;
68076;SDS011;54866;53.458;14.540;2023-07-20T06:08:35;1.50;;;0.70;;
68076;SDS011;54866;53.458;14.540;2023-07-20T06:11:05;2.10;;;0.70;;
68076;SDS011;54866;53.458;14.540;2023-07-20T06:13:34;2.10;;;0.80;;
68076;SDS011;54866;53.458;14.540;2023-07-20T06:16:04;1.70;;;0.80;;
68076;SDS011;54866;53.458;14.540;2023-07-20T06:18:33;2.20;;;0.80;;
68076;SDS011;54866;53.458;14.540;2023-07-20T06:21:02;1.30;;;0.80;;
68076;SDS011;54866;53.458;14.540;2023-07-20T06:23:32;1.40;;;0.70;;
68076;SDS011;54866;53.458;14.540;2023-07-20T06:26:01;3.90;;;0.80;;
68076;SDS011;54866;53.458;14.540;2023-07-20T06:28:30;2.00;;;0.60;;
68076;SDS011;54866;53.458;14.540;2023-07-20T06:31:01;1.30;;;0.60;;
68076;SDS011;54866;53.458;14.540;2023-07-20T06:33:30;2.40;;;0.90;;
68076;SDS011;54866;53.458;14.540;2023-07-20T06:36:01;2.20;;;0.80;;
68076;SDS011;54866;53.458;14.540;2023-07-20T06:38:30;1.70;;;0.70;;
68076;SDS011;54866;53.458;14.540;2023-07-20T06:40:59;1.40;;;0.90;;
68076;SDS011;54866;53.458;14.540;2023-07-20T06:43:29;1.50;;;0.60;;
68076;SDS011;54866;53.458;14.540;2023-07-20T06:45:58;1.90;;;0.80;;
68076;SDS011;54866;53.458;14.540;2023-07-20T06:48:27;1.40;;;0.60;;
68076;SDS011;54866;53.458;14.540;2023-07-20T06:50:57;1.40;;;0.60;;
68076;SDS011;54866;53.458;14.540;2023-07-20T06:53:26;1.70;;;0.60;;
68076;SDS011;54866;53.458;14.540;2023-07-20T06:55:56;1.70;;;0.70;;
68076;SDS011;54866;53.458;14.540;2023-07-20T06:58:25;2.00;;;0.70;;
68076;SDS011;54866;53.458;14.540;2023-07-20T07:00:54;2.30;;;0.80;;
68076;SDS011;54866;53.458;14.540;2023-07-20T07:03:26;2.20;;;0.50;;
68076;SDS011;54866;53.458;14.540;2023-07-20T07:05:56;2.60;;;0.70;;
68076;SDS011;54866;53.458;14.540;2023-07-20T07:08:25;1.00;;;0.70;;
68076;SDS011;54866;53.458;14.540;2023-07-20T07:10:55;2.10;;;0.70;;
68076;SDS011;54866;53.458;14.540;2023-07-20T07:13:24;2.40;;;0.60;;
68076;SDS011;54866;53.458;14.540;2023-07-20T07:15:54;1.70;;;0.70;;
68076;SDS011;54866;53.458;14.540;2023-07-20T07:18:24;1.70;;;0.60;;
68076;SDS011;54866;53.458;14.540;2023-07-20T07:20:53;1.10;;;0.40;;
68076;SDS011;54866;53.458;14.540;2023-07-20T07:23:22;1.50;;;0.70;;
68076;SDS011;54866;53.458;14.540;2023-07-20T07:25:52;1.60;;;0.70;;
68076;SDS011;54866;53.458;14.540;2023-07-20T07:28:21;3.10;;;0.70;;
68076;SDS011;54866;53.458;14.540;2023-07-20T07:30:50;1.80;;;1.10;;
68076;SDS011;54866;53.458;14.540;2023-07-20T07:33:20;2.80;;;1.10;;
68076;SDS011;54866;53.458;14.540;2023-07-20T07:35:49;2.00;;;0.60;;
68076;SDS011;54866;53.458;14.540;2023-07-20T07:38:19;1.50;;;1.00;;
68076;SDS011;54866;53.458;14.540;2023-07-20T07:40:48;1.40;;;0.80;;
68076;SDS011;54866;53.458;14.540;2023-07-20T07:43:18;2.60;;;0.80;;
68076;SDS011;54866;53.458;14.540;2023-07-20T07:45:47;1.80;;;0.90;;
68076;SDS011;54866;53.458;14.540;2023-07-20T07:48:17;1.80;;;1.00;;
68076;SDS011;54866;53.458;14.540;2023-07-20T07:50:47;2.20;;;0.70;;
68076;SDS011;54866;53.458;14.540;2023-07-20T07:53:17;2.60;;;0.90;;
68076;SDS011;54866;53.458;14.540;2023-07-20T07:55:48;1.90;;;1.00;;
68076;SDS011;54866;53.458;14.540;2023-07-20T07:58:18;1.30;;;0.60;;
68076;SDS011;54866;53.458;14.540;2023-07-20T08:00:47;4.10;;;0.90;;
68076;SDS011;54866;53.458;14.540;2023-07-20T08:03:17;2.40;;;0.90;;
68076;SDS011;54866;53.458;14.540;2023-07-20T08:05:47;3.90;;;0.90;;
68076;SDS011;54866;53.458;14.540;2023-07-20T08:08:16;2.10;;;0.90;;
68076;SDS011;54866;53.458;14.540;2023-07-20T08:10:46;1.70;;;0.90;;
68076;SDS011;54866;53.458;14.540;2023-07-20T08:13:16;1.50;;;0.60;;
68076;SDS011;54866;53.458;14.540;2023-07-20T08:15:45;2.50;;;0.80;;
68076;SDS011;54866;53.458;14.540;2023-07-20T08:18:16;1.80;;;0.90;;
68076;SDS011;54866;53.458;14.540;2023-07-20T08:20:46;1.80;;;0.80;;
68076;SDS011;54866;53.458;14.540;2023-07-20T08:23:15;1.30;;;0.70;;
68076;SDS011;54866;53.458;14.540;2023-07-20T08:25:45;1.40;;;0.50;;
68076;SDS011;54866;53.458;14.540;2023-07-20T08:28:14;2.90;;;0.60;;
68076;SDS011;54866;53.458;14.540;2023-07-20T08:30:45;2.20;;;0.60;;
68076;SDS011;54866;53.458;14.540;2023-07-20T08:33:16;1.10;;;0.60;;
68076;SDS011;54866;53.458;14.540;2023-07-20T08:35:46;1.40;;;0.60;;
68076;SDS011;54866;53.458;14.540;2023-07-20T08:38:16;1.10;;;0.40;;
68076;SDS011;54866;53.458;14.540;2023-07-20T08:40:45;0.90;;;0.50;;
68076;SDS011;54866;53.458;14.540;2023-07-20T08:43:15;1.90;;;0.70;;
68076;SDS011;54866;53.458;14.540;2023-07-20T08:45:45;2.70;;;0.60;;
68076;SDS011;54866;53.458;14.540;2023-07-20T08:48:17;1.60;;;0.60;;
68076;SDS011;54866;53.458;14.540;2023-07-20T08:50:48;1.60;;;0.50;;
68076;SDS011;54866;53.458;14.540;2023-07-20T08:53:20;1.10;;;0.40;;
68076;SDS011;54866;53.458;14.540;2023-07-20T08:55:50;1.10;;;0.50;;
68076;SDS011;54866;53.458;14.540;2023-07-20T08:58:20;1.10;;;0.60;;
68076;SDS011;54866;53.458;14.540;2023-07-20T09:00:52;1.00;;;0.60;;
68076;SDS011;54866;53.458;14.540;2023-07-20T09:03:22;2.00;;;0.80;;
68076;SDS011;54866;53.458;14.540;2023-07-20T09:05:51;0.90;;;0.40;;
68076;SDS011;54866;53.458;14.540;2023-07-20T09:08:21;1.30;;;0.40;;
68076;SDS011;54866;53.458;14.540;2023-07-20T09:10:50;1.70;;;0.50;;
68076;SDS011;54866;53.458;14.540;2023-07-20T09:13:20;1.50;;;0.70;;
68076;SDS011;54866;53.458;14.540;2023-07-20T09:15:49;3.00;;;0.50;;
68076;SDS011;54866;53.458;14.540;2023-07-20T09:18:25;1.40;;;0.60;;
68076;SDS011;54866;53.458;14.540;2023-07-20T09:20:59;0.90;;;0.40;;
68076;SDS011;54866;53.458;14.540;2023-07-20T09:23:31;1.60;;;0.50;;
68076;SDS011;54866;53.458;14.540;2023-07-20T09:26:02;0.90;;;0.40;;
68076;SDS011;54866;53.458;14.540;2023-07-20T09:28:42;0.80;;;0.40;;
68076;SDS011;54866;53.458;14.540;2023-07-20T09:31:18;1.10;;;0.50;;
68076;SDS011;54866;53.458;14.540;2023-07-20T09:33:49;1.30;;;0.50;;
68076;SDS011;54866;53.458;14.540;2023-07-20T09:36:21;1.30;;;0.50;;
68076;SDS011;54866;53.458;14.540;2023-07-20T09:38:50;0.90;;;0.50;;
68076;SDS011;54866;53.458;14.540;2023-07-20T09:41:20;1.50;;;0.60;;
68076;SDS011;54866;53.458;14.540;2023-07-20T09:43:50;1.10;;;0.50;;
68076;SDS011;54866;53.458;14.540;2023-07-20T09:46:20;0.90;;;0.50;;
68076;SDS011;54866;53.458;14.540;2023-07-20T09:48:52;1.20;;;0.50;;
68076;SDS011;54866;53.458;14.540;2023-07-20T09:51:22;2.20;;;0.60;;
68076;SDS011;54866;53.458;14.540;2023-07-20T09:53:52;1.10;;;0.60;;
68076;SDS011;54866;53.458;14.540;2023-07-20T09:56:23;1.60;;;0.60;;
68076;SDS011;54866;53.458;14.540;2023-07-20T09:58:53;1.70;;;0.60;;
68076;SDS011;54866;53.458;14.540;2023-07-20T10:01:23;3.00;;;0.90;;
68076;SDS011;54866;53.458;14.540;2023-07-20T10:03:54;2.60;;;1.10;;
68076;SDS011;54866;53.458;14.540;2023-07-20T10:06:32;2.10;;;1.00;;
68076;SDS011;54866;53.458;14.540;2023-07-20T10:09:02;3.50;;;1.10;;
68076;SDS011;54866;53.458;14.540;2023-07-20T10:11:35;2.70;;;0.90;;
68076;SDS011;54866;53.458;14.540;2023-07-20T10:14:07;2.20;;;0.90;;
68076;SDS011;54866;53.458;14.540;2023-07-20T10:16:43;3.70;;;1.20;;
68076;SDS011;54866;53.458;14.540;2023-07-20T10:19:20;2.60;;;1.10;;
68076;SDS011;54866;53.458;14.540;2023-07-20T10:21:56;2.50;;;0.90;;
68076;SDS011;54866;53.458;14.540;2023-07-20T10:24:31;1.90;;;0.80;;
68076;SDS011;54866;53.458;14.540;2023-07-20T10:27:02;2.50;;;0.70;;
68076;SDS011;54866;53.458;14.540;2023-07-20T10:29:32;1.20;;;0.60;;
68076;SDS011;54866;53.458;14.540;2023-07-20T10:32:02;2.50;;;1.00;;
68076;SDS011;54866;53.458;14.540;2023-07-20T10:34:33;1.70;;;0.70;;
68076;SDS011;54866;53.458;14.540;2023-07-20T10:37:02;1.80;;;0.80;;
68076;SDS011;54866;53.458;14.540;2023-07-20T10:39:32;2.90;;;0.90;;
68076;SDS011;54866;53.458;14.540;2023-07-20T10:42:02;1.50;;;0.70;;
68076;SDS011;54866;53.458;14.540;2023-07-20T10:44:34;1.70;;;0.50;;
68076;SDS011;54866;53.458;14.540;2023-07-20T10:47:09;1.80;;;0.80;;
68076;SDS011;54866;53.458;14.540;2023-07-20T10:52:37;2.50;;;0.70;;
68076;SDS011;54866;53.458;14.540;2023-07-20T10:55:15;1.10;;;0.50;;
68076;SDS011;54866;53.458;14.540;2023-07-20T10:57:45;2.30;;;0.50;;
68076;SDS011;54866;53.458;14.540;2023-07-20T11:00:38;1.40;;;0.60;;
68076;SDS011;54866;53.458;14.540;2023-07-20T11:03:29;1.50;;;0.60;;
68076;SDS011;54866;53.458;14.540;2023-07-20T11:06:00;1.00;;;0.50;;
68076;SDS011;54866;53.458;14.540;2023-07-20T11:09:08;1.20;;;0.50;;
68076;SDS011;54866;53.458;14.540;2023-07-20T11:11:41;1.00;;;0.50;;
68076;SDS011;54866;53.458;14.540;2023-07-20T11:14:20;1.30;;;0.30;;
68076;SDS011;54866;53.458;14.540;2023-07-20T11:16:51;1.30;;;0.60;;
68076;SDS011;54866;53.458;14.540;2023-07-20T11:19:22;1.90;;;0.50;;
68076;SDS011;54866;53.458;14.540;2023-07-20T11:21:52;1.30;;;0.50;;
68076;SDS011;54866;53.458;14.540;2023-07-20T11:24:23;0.70;;;0.30;;
68076;SDS011;54866;53.458;14.540;2023-07-20T11:26:54;1.40;;;0.70;;
68076;SDS011;54866;53.458;14.540;2023-07-20T11:29:23;2.70;;;0.50;;
68076;SDS011;54866;53.458;14.540;2023-07-20T11:31:53;1.00;;;0.50;;
68076;SDS011;54866;53.458;14.540;2023-07-20T11:34:23;1.70;;;0.60;;
68076;SDS011;54866;53.458;14.540;2023-07-20T11:36:54;0.80;;;0.40;;
68076;SDS011;54866;53.458;14.540;2023-07-20T11:39:23;1.20;;;0.50;;
68076;SDS011;54866;53.458;14.540;2023-07-20T11:41:53;0.70;;;0.40;;
68076;SDS011;54866;53.458;14.540;2023-07-20T11:44:25;0.80;;;0.40;;
68076;SDS011;54866;53.458;14.540;2023-07-20T11:47:02;0.70;;;0.30;;
68076;SDS011;54866;53.458;14.540;2023-07-20T11:49:35;0.90;;;0.50;;
68076;SDS011;54866;53.458;14.540;2023-07-20T11:52:06;0.70;;;0.50;;
68076;SDS011;54866;53.458;14.540;2023-07-20T11:54:37;1.40;;;0.40;;
68076;SDS011;54866;53.458;14.540;2023-07-20T11:57:07;1.60;;;0.50;;
68076;SDS011;54866;53.458;14.540;2023-07-20T11:59:53;1.70;;;0.50;;
68076;SDS011;54866;53.458;14.540;2023-07-20T12:02:26;1.70;;;0.60;;
68076;SDS011;54866;53.458;14.540;2023-07-20T12:04:56;0.30;;;0.20;;
68076;SDS011;54866;53.458;14.540;2023-07-20T12:07:27;1.00;;;0.50;;
68076;SDS011;54866;53.458;14.540;2023-07-20T12:10:07;0.90;;;0.40;;
68076;SDS011;54866;53.458;14.540;2023-07-20T12:12:39;2.30;;;0.40;;
68076;SDS011;54866;53.458;14.540;2023-07-20T12:15:16;2.70;;;0.50;;
68076;SDS011;54866;53.458;14.540;2023-07-20T12:17:48;1.70;;;0.50;;
68076;SDS011;54866;53.458;14.540;2023-07-20T12:20:25;1.70;;;0.50;;
68076;SDS011;54866;53.458;14.540;2023-07-20T12:22:57;0.80;;;0.40;;
68076;SDS011;54866;53.458;14.540;2023-07-20T12:25:36;1.70;;;0.50;;
68076;SDS011;54866;53.458;14.540;2023-07-20T12:28:07;1.10;;;0.40;;
68076;SDS011;54866;53.458;14.540;2023-07-20T12:30:37;0.90;;;0.50;;
68076;SDS011;54866;53.458;14.540;2023-07-20T12:33:07;1.40;;;0.60;;
68076;SDS011;54866;53.458;14.540;2023-07-20T12:35:36;1.20;;;0.40;;
68076;SDS011;54866;53.458;14.540;2023-07-20T12:38:06;1.10;;;0.50;;
68076;SDS011;54866;53.458;14.540;2023-07-20T12:40:35;0.90;;;0.40;;
68076;SDS011;54866;53.458;14.540;2023-07-20T12:43:05;0.90;;;0.40;;
68076;SDS011;54866;53.458;14.540;2023-07-20T12:45:34;1.50;;;0.70;;
68076;SDS011;54866;53.458;14.540;2023-07-20T12:48:03;2.00;;;0.50;;
68076;SDS011;54866;53.458;14.540;2023-07-20T12:50:33;1.40;;;0.60;;
68076;SDS011;54866;53.458;14.540;2023-07-20T12:53:02;1.00;;;0.40;;
68076;SDS011;54866;53.458;14.540;2023-07-20T12:55:32;1.80;;;0.50;;
68076;SDS011;54866;53.458;14.540;2023-07-20T12:58:01;0.90;;;0.40;;
68076;SDS011;54866;53.458;14.540;2023-07-20T13:00:31;0.90;;;0.40;;
68076;SDS011;54866;53.458;14.540;2023-07-20T13:03:00;2.00;;;0.70;;
68076;SDS011;54866;53.458;14.540;2023-07-20T13:05:31;1.50;;;0.40;;
68076;SDS011;54866;53.458;14.540;2023-07-20T13:08:01;4.40;;;0.90;;
68076;SDS011;54866;53.458;14.540;2023-07-20T13:13:25;1.40;;;0.40;;
68076;SDS011;54866;53.458;14.540;2023-07-20T13:15:54;2.10;;;0.60;;
68076;SDS011;54866;53.458;14.540;2023-07-20T13:18:24;1.10;;;0.40;;
68076;SDS011;54866;53.458;14.540;2023-07-20T13:20:53;0.60;;;0.30;;
68076;SDS011;54866;53.458;14.540;2023-07-20T13:23:22;1.80;;;0.60;;
68076;SDS011;54866;53.458;14.540;2023-07-20T13:25:52;1.30;;;0.40;;
68076;SDS011;54866;53.458;14.540;2023-07-20T13:28:21;2.70;;;0.60;;
68076;SDS011;54866;53.458;14.540;2023-07-20T13:30:54;1.80;;;0.50;;
68076;SDS011;54866;53.458;14.540;2023-07-20T13:33:23;0.90;;;0.40;;
68076;SDS011;54866;53.458;14.540;2023-07-20T13:36:07;1.80;;;0.50;;
68076;SDS011;54866;53.458;14.540;2023-07-20T13:39:16;1.10;;;0.50;;
68076;SDS011;54866;53.458;14.540;2023-07-20T13:41:46;1.90;;;0.60;;
68076;SDS011;54866;53.458;14.540;2023-07-20T13:44:16;1.00;;;0.40;;
68076;SDS011;54866;53.458;14.540;2023-07-20T13:46:47;1.10;;;0.50;;
68076;SDS011;54866;53.458;14.540;2023-07-20T13:49:20;1.40;;;0.50;;
68076;SDS011;54866;53.458;14.540;2023-07-20T13:51:55;2.10;;;0.50;;
68076;SDS011;54866;53.458;14.540;2023-07-20T13:54:25;1.40;;;0.60;;
68076;SDS011;54866;53.458;14.540;2023-07-20T13:56:54;2.20;;;0.60;;
68076;SDS011;54866;53.458;14.540;2023-07-20T13:59:24;1.60;;;0.50;;
68076;SDS011;54866;53.458;14.540;2023-07-20T14:01:53;1.90;;;0.90;;
68076;SDS011;54866;53.458;14.540;2023-07-20T14:04:22;1.10;;;0.50;;
68076;SDS011;54866;53.458;14.540;2023-07-20T14:06:52;2.40;;;0.80;;
68076;SDS011;54866;53.458;14.540;2023-07-20T14:09:21;1.80;;;0.70;;
68076;SDS011;54866;53.458;14.540;2023-07-20T14:11:51;2.40;;;0.60;;
68076;SDS011;54866;53.458;14.540;2023-07-20T14:14:20;7.30;;;1.00;;
68076;SDS011;54866;53.458;14.540;2023-07-20T14:16:50;2.60;;;0.70;;
68076;SDS011;54866;53.458;14.540;2023-07-20T14:19:19;2.70;;;0.60;;
68076;SDS011;54866;53.458;14.540;2023-07-20T14:21:49;1.10;;;0.60;;
68076;SDS011;54866;53.458;14.540;2023-07-20T14:24:19;1.40;;;0.60;;
68076;SDS011;54866;53.458;14.540;2023-07-20T14:26:48;1.70;;;0.50;;
68076;SDS011;54866;53.458;14.540;2023-07-20T14:29:18;2.40;;;0.60;;
68076;SDS011;54866;53.458;14.540;2023-07-20T14:31:47;1.80;;;0.70;;
68076;SDS011;54866;53.458;14.540;2023-07-20T14:34:18;0.80;;;0.50;;
68076;SDS011;54866;53.458;14.540;2023-07-20T14:36:48;1.80;;;0.70;;
68076;SDS011;54866;53.458;14.540;2023-07-20T14:39:17;2.40;;;0.80;;
68076;SDS011;54866;53.458;14.540;2023-07-20T14:41:48;2.10;;;0.90;;
68076;SDS011;54866;53.458;14.540;2023-07-20T14:44:18;1.60;;;0.70;;
68076;SDS011;54866;53.458;14.540;2023-07-20T14:46:48;1.90;;;0.80;;
68076;SDS011;54866;53.458;14.540;2023-07-20T14:49:17;2.40;;;0.80;;
68076;SDS011;54866;53.458;14.540;2023-07-20T14:51:46;2.30;;;0.90;;
68076;SDS011;54866;53.458;14.540;2023-07-20T14:54:19;2.80;;;0.90;;
68076;SDS011;54866;53.458;14.540;2023-07-20T14:56:50;2.40;;;0.70;;
68076;SDS011;54866;53.458;14.540;2023-07-20T14:59:19;2.00;;;0.90;;
68076;SDS011;54866;53.458;14.540;2023-07-20T15:01:50;3.20;;;1.10;;
68076;SDS011;54866;53.458;14.540;2023-07-20T15:04:19;2.70;;;0.80;;
68076;SDS011;54866;53.458;14.540;2023-07-20T15:06:49;2.40;;;1.00;;
68076;SDS011;54866;53.458;14.540;2023-07-20T15:09:18;2.40;;;1.20;;
68076;SDS011;54866;53.458;14.540;2023-07-20T15:11:48;1.80;;;0.60;;
68076;SDS011;54866;53.458;14.540;2023-07-20T15:14:17;2.50;;;1.00;;